Terminal Aerodrome Forecast
Issued by NWS

Home | Current Version | Previous Version | Text Only | Print | Product List | Glossary On
Versions: 1 2 3 4 5 6 7 8 9 10 11 12 13 14 15 16 17 18 19 20 21 22 23 24 25 26 27 28 29 30
000
FTUS45 KREV 252300
TAFTRK
TAF
KTRK 252334Z 2600/2624 28010G18KT P6SM VCSH SCT040 BKN060
     FM260400 VRB04KT P6SM BKN100
     FM261200 VRB03KT 2SM BR SCT001
     FM261700 01008KT P6SM FEW220=

USA.gov is the U.S. government's official web portal to all federal, state and local government web resources and services.